sensor_id;sensor_type;location;lat;lon;timestamp;pressure;altitude;pressure_sealevel;temperature;humidity
27729;BME280;15126;42.186;24.340;2023-04-15T00:01:28;98562.03;;;9.66;85.81
27729;BME280;15126;42.186;24.340;2023-04-15T00:03:58;98560.16;;;9.63;85.58
27729;BME280;15126;42.186;24.340;2023-04-15T00:06:25;98553.81;;;9.75;84.51
27729;BME280;15126;42.186;24.340;2023-04-15T00:08:53;98561.28;;;9.78;84.67
27729;BME280;15126;42.186;24.340;2023-04-15T00:11:20;98565.63;;;9.67;85.05
27729;BME280;15126;42.186;24.340;2023-04-15T00:13:47;98551.69;;;9.67;84.98
27729;BME280;15126;42.186;24.340;2023-04-15T00:16:13;98554.59;;;9.76;84.71
27729;BME280;15126;42.186;24.340;2023-04-15T00:18:40;98559.16;;;9.82;84.77
27729;BME280;15126;42.186;24.340;2023-04-15T00:21:07;98556.94;;;9.65;85.24
27729;BME280;15126;42.186;24.340;2023-04-15T00:23:34;98564.72;;;9.70;85.14
27729;BME280;15126;42.186;24.340;2023-04-15T00:26:03;98557.81;;;9.62;85.86
27729;BME280;15126;42.186;24.340;2023-04-15T00:28:30;98570.63;;;9.59;85.67
27729;BME280;15126;42.186;24.340;2023-04-15T00:30:56;98572.94;;;9.61;84.41
27729;BME280;15126;42.186;24.340;2023-04-15T00:33:23;98576.28;;;9.55;85.18
27729;BME280;15126;42.186;24.340;2023-04-15T00:35:50;98574.44;;;9.36;86.17
27729;BME280;15126;42.186;24.340;2023-04-15T00:38:18;98568.41;;;9.25;86.15
27729;BME280;15126;42.186;24.340;2023-04-15T00:40:44;98566.00;;;9.11;86.51
27729;BME280;15126;42.186;24.340;2023-04-15T00:43:13;98571.44;;;9.02;87.12
27729;BME280;15126;42.186;24.340;2023-04-15T00:45:40;98561.63;;;8.81;87.22
27729;BME280;15126;42.186;24.340;2023-04-15T00:48:07;98576.00;;;8.80;88.17
27729;BME280;15126;42.186;24.340;2023-04-15T00:50:35;98565.75;;;8.77;87.50
27729;BME280;15126;42.186;24.340;2023-04-15T00:53:01;98566.59;;;8.74;88.43
27729;BME280;15126;42.186;24.340;2023-04-15T00:55:28;98570.75;;;8.82;88.72
27729;BME280;15126;42.186;24.340;2023-04-15T00:57:55;98560.97;;;8.77;88.84
27729;BME280;15126;42.186;24.340;2023-04-15T01:00:23;98562.44;;;8.82;87.97
27729;BME280;15126;42.186;24.340;2023-04-15T01:02:51;98562.75;;;8.84;87.29
27729;BME280;15126;42.186;24.340;2023-04-15T01:05:18;98567.28;;;8.78;87.38
27729;BME280;15126;42.186;24.340;2023-04-15T01:07:45;98558.59;;;8.76;87.28
27729;BME280;15126;42.186;24.340;2023-04-15T01:10:12;98539.56;;;8.90;86.68
27729;BME280;15126;42.186;24.340;2023-04-15T01:12:39;98527.66;;;8.90;86.81
27729;BME280;15126;42.186;24.340;2023-04-15T01:15:07;98529.84;;;8.82;87.16
27729;BME280;15126;42.186;24.340;2023-04-15T01:17:37;98525.50;;;8.81;87.86
27729;BME280;15126;42.186;24.340;2023-04-15T01:20:05;98525.56;;;8.94;86.77
27729;BME280;15126;42.186;24.340;2023-04-15T01:22:35;98501.56;;;8.71;87.29
27729;BME280;15126;42.186;24.340;2023-04-15T01:25:05;98526.13;;;8.73;87.60
27729;BME280;15126;42.186;24.340;2023-04-15T01:27:38;98527.56;;;8.49;88.39
27729;BME280;15126;42.186;24.340;2023-04-15T01:30:06;98539.72;;;8.38;88.17
27729;BME280;15126;42.186;24.340;2023-04-15T01:32:33;98554.38;;;8.55;88.25
27729;BME280;15126;42.186;24.340;2023-04-15T01:35:00;98570.97;;;8.59;87.83
27729;BME280;15126;42.186;24.340;2023-04-15T01:37:29;98585.81;;;8.68;87.50
27729;BME280;15126;42.186;24.340;2023-04-15T01:39:56;98604.22;;;8.62;86.61
27729;BME280;15126;42.186;24.340;2023-04-15T01:42:24;98561.50;;;8.40;86.61
27729;BME280;15126;42.186;24.340;2023-04-15T01:44:52;98593.69;;;8.70;86.11
27729;BME280;15126;42.186;24.340;2023-04-15T01:47:19;98582.41;;;8.77;85.41
27729;BME280;15126;42.186;24.340;2023-04-15T01:49:46;98572.78;;;8.65;85.59
27729;BME280;15126;42.186;24.340;2023-04-15T01:52:12;98576.53;;;8.59;85.99
27729;BME280;15126;42.186;24.340;2023-04-15T01:54:40;98583.47;;;8.67;85.29
27729;BME280;15126;42.186;24.340;2023-04-15T01:57:06;98600.22;;;8.63;85.19
27729;BME280;15126;42.186;24.340;2023-04-15T01:59:33;98614.56;;;8.46;86.22
27729;BME280;15126;42.186;24.340;2023-04-15T02:02:02;98614.34;;;8.20;87.62
27729;BME280;15126;42.186;24.340;2023-04-15T02:04:28;98619.22;;;8.32;87.59
27729;BME280;15126;42.186;24.340;2023-04-15T02:06:56;98615.78;;;8.28;87.94
27729;BME280;15126;42.186;24.340;2023-04-15T02:09:22;98605.16;;;8.23;88.05
27729;BME280;15126;42.186;24.340;2023-04-15T02:11:49;98598.28;;;8.12;88.19
27729;BME280;15126;42.186;24.340;2023-04-15T02:14:17;98599.19;;;8.05;87.97
27729;BME280;15126;42.186;24.340;2023-04-15T02:16:44;98599.31;;;8.18;87.53
27729;BME280;15126;42.186;24.340;2023-04-15T02:19:12;98596.09;;;8.03;88.27
27729;BME280;15126;42.186;24.340;2023-04-15T02:21:39;98612.91;;;7.96;88.53
27729;BME280;15126;42.186;24.340;2023-04-15T02:24:06;98612.97;;;7.93;87.98
27729;BME280;15126;42.186;24.340;2023-04-15T02:26:33;98617.13;;;7.85;88.01
27729;BME280;15126;42.186;24.340;2023-04-15T02:29:00;98608.97;;;7.94;87.71
27729;BME280;15126;42.186;24.340;2023-04-15T02:31:27;98606.47;;;7.99;87.13
27729;BME280;15126;42.186;24.340;2023-04-15T02:33:54;98607.88;;;8.07;86.63
27729;BME280;15126;42.186;24.340;2023-04-15T02:36:22;98610.78;;;7.84;86.59
27729;BME280;15126;42.186;24.340;2023-04-15T02:38:49;98613.44;;;7.71;87.57
27729;BME280;15126;42.186;24.340;2023-04-15T02:41:16;98618.38;;;7.80;87.38
27729;BME280;15126;42.186;24.340;2023-04-15T02:43:43;98618.38;;;7.80;87.04
27729;BME280;15126;42.186;24.340;2023-04-15T02:46:10;98619.56;;;7.63;87.35
27729;BME280;15126;42.186;24.340;2023-04-15T02:48:38;98619.28;;;7.57;88.59
27729;BME280;15126;42.186;24.340;2023-04-15T02:51:16;98611.09;;;7.50;88.55
27729;BME280;15126;42.186;24.340;2023-04-15T02:53:45;98604.78;;;7.50;89.11
27729;BME280;15126;42.186;24.340;2023-04-15T02:56:12;98609.03;;;7.54;88.53
27729;BME280;15126;42.186;24.340;2023-04-15T02:58:40;98611.94;;;7.67;87.97
27729;BME280;15126;42.186;24.340;2023-04-15T03:01:07;98606.09;;;7.81;86.57
27729;BME280;15126;42.186;24.340;2023-04-15T03:03:34;98609.59;;;7.85;86.73
27729;BME280;15126;42.186;24.340;2023-04-15T03:06:01;98617.47;;;7.87;86.30
27729;BME280;15126;42.186;24.340;2023-04-15T03:08:28;98611.69;;;7.97;86.01
27729;BME280;15126;42.186;24.340;2023-04-15T03:10:57;98619.66;;;7.95;84.88
27729;BME280;15126;42.186;24.340;2023-04-15T03:13:25;98620.34;;;7.99;84.67
27729;BME280;15126;42.186;24.340;2023-04-15T03:15:51;98624.78;;;7.97;84.61
27729;BME280;15126;42.186;24.340;2023-04-15T03:18:19;98628.88;;;8.08;84.80
27729;BME280;15126;42.186;24.340;2023-04-15T03:20:46;98636.63;;;8.17;83.70
27729;BME280;15126;42.186;24.340;2023-04-15T03:23:12;98630.63;;;8.18;83.83
27729;BME280;15126;42.186;24.340;2023-04-15T03:25:39;98628.03;;;8.11;84.59
27729;BME280;15126;42.186;24.340;2023-04-15T03:28:07;98624.66;;;7.84;85.89
27729;BME280;15126;42.186;24.340;2023-04-15T03:30:34;98630.72;;;7.79;86.19
27729;BME280;15126;42.186;24.340;2023-04-15T03:33:01;98625.31;;;7.72;86.61
27729;BME280;15126;42.186;24.340;2023-04-15T03:35:28;98632.47;;;7.89;85.55
27729;BME280;15126;42.186;24.340;2023-04-15T03:37:55;98641.44;;;7.97;85.62
27729;BME280;15126;42.186;24.340;2023-04-15T03:40:21;98638.75;;;7.93;85.01
27729;BME280;15126;42.186;24.340;2023-04-15T03:42:48;98644.59;;;7.99;84.82
27729;BME280;15126;42.186;24.340;2023-04-15T03:45:17;98651.97;;;8.05;84.30
27729;BME280;15126;42.186;24.340;2023-04-15T03:47:44;98653.09;;;8.08;84.34
27729;BME280;15126;42.186;24.340;2023-04-15T03:50:10;98650.31;;;8.08;84.06
27729;BME280;15126;42.186;24.340;2023-04-15T03:52:37;98660.06;;;8.16;83.37
27729;BME280;15126;42.186;24.340;2023-04-15T03:55:04;98656.84;;;8.17;82.97
27729;BME280;15126;42.186;24.340;2023-04-15T03:57:31;98657.00;;;8.10;82.81
27729;BME280;15126;42.186;24.340;2023-04-15T04:00:04;98671.56;;;7.98;83.77
27729;BME280;15126;42.186;24.340;2023-04-15T04:02:33;98670.50;;;7.92;83.44
27729;BME280;15126;42.186;24.340;2023-04-15T04:04:59;98661.66;;;7.97;83.28
27729;BME280;15126;42.186;24.340;2023-04-15T04:07:26;98668.50;;;7.73;83.65
27729;BME280;15126;42.186;24.340;2023-04-15T04:09:53;98678.47;;;7.70;84.31
27729;BME280;15126;42.186;24.340;2023-04-15T04:12:20;98677.09;;;7.59;85.54
27729;BME280;15126;42.186;24.340;2023-04-15T04:14:47;98677.97;;;7.56;85.86
27729;BME280;15126;42.186;24.340;2023-04-15T04:17:13;98669.00;;;7.48;85.90
27729;BME280;15126;42.186;24.340;2023-04-15T04:19:41;98685.97;;;7.50;86.22
27729;BME280;15126;42.186;24.340;2023-04-15T04:22:11;98676.13;;;7.69;85.14
27729;BME280;15126;42.186;24.340;2023-04-15T04:24:37;98673.22;;;7.76;84.95
27729;BME280;15126;42.186;24.340;2023-04-15T04:27:04;98684.03;;;7.90;84.87
27729;BME280;15126;42.186;24.340;2023-04-15T04:29:31;98684.94;;;8.03;83.94
27729;BME280;15126;42.186;24.340;2023-04-15T04:31:58;98680.78;;;8.11;84.12
27729;BME280;15126;42.186;24.340;2023-04-15T04:34:25;98683.84;;;8.36;84.03
27729;BME280;15126;42.186;24.340;2023-04-15T04:36:53;98704.66;;;8.80;83.89
27729;BME280;15126;42.186;24.340;2023-04-15T04:39:20;98700.88;;;9.35;81.44
27729;BME280;15126;42.186;24.340;2023-04-15T04:41:46;98703.31;;;9.91;79.43
27729;BME280;15126;42.186;24.340;2023-04-15T04:44:13;98704.47;;;10.35;76.60
27729;BME280;15126;42.186;24.340;2023-04-15T04:46:40;98693.31;;;10.60;74.48
27729;BME280;15126;42.186;24.340;2023-04-15T04:49:07;98721.31;;;10.94;72.82
27729;BME280;15126;42.186;24.340;2023-04-15T04:51:33;98725.63;;;11.20;71.37
27729;BME280;15126;42.186;24.340;2023-04-15T04:54:02;98731.41;;;11.39;70.42
27729;BME280;15126;42.186;24.340;2023-04-15T04:56:29;98719.94;;;11.24;69.32
27729;BME280;15126;42.186;24.340;2023-04-15T04:58:56;98740.25;;;11.12;68.74
27729;BME280;15126;42.186;24.340;2023-04-15T05:01:23;98730.03;;;10.84;70.29
27729;BME280;15126;42.186;24.340;2023-04-15T05:03:51;98733.16;;;10.86;70.97
27729;BME280;15126;42.186;24.340;2023-04-15T05:06:18;98730.03;;;10.84;70.17
27729;BME280;15126;42.186;24.340;2023-04-15T05:08:45;98724.09;;;10.69;71.07
27729;BME280;15126;42.186;24.340;2023-04-15T05:11:13;98728.69;;;10.75;70.50
27729;BME280;15126;42.186;24.340;2023-04-15T05:13:40;98727.09;;;10.87;70.32
27729;BME280;15126;42.186;24.340;2023-04-15T05:16:07;98726.78;;;10.85;69.97
27729;BME280;15126;42.186;24.340;2023-04-15T05:18:34;98737.63;;;10.70;70.52
27729;BME280;15126;42.186;24.340;2023-04-15T05:21:01;98737.16;;;10.59;71.43
27729;BME280;15126;42.186;24.340;2023-04-15T05:23:28;98731.59;;;10.59;73.36
27729;BME280;15126;42.186;24.340;2023-04-15T05:25:55;98733.91;;;10.73;74.47
27729;BME280;15126;42.186;24.340;2023-04-15T05:28:23;98729.78;;;10.65;73.60
27729;BME280;15126;42.186;24.340;2023-04-15T05:30:51;98729.13;;;10.87;73.90
27729;BME280;15126;42.186;24.340;2023-04-15T05:33:18;98737.59;;;11.08;73.97
27729;BME280;15126;42.186;24.340;2023-04-15T05:35:44;98743.69;;;11.28;73.44
27729;BME280;15126;42.186;24.340;2023-04-15T05:38:11;98751.41;;;11.37;72.42
27729;BME280;15126;42.186;24.340;2023-04-15T05:40:38;98753.41;;;11.36;73.04
27729;BME280;15126;42.186;24.340;2023-04-15T05:43:05;98763.25;;;11.41;73.11
27729;BME280;15126;42.186;24.340;2023-04-15T05:45:34;98766.84;;;11.63;72.80
27729;BME280;15126;42.186;24.340;2023-04-15T05:48:00;98769.84;;;11.81;72.03
27729;BME280;15126;42.186;24.340;2023-04-15T05:50:27;98767.88;;;12.04;72.67
27729;BME280;15126;42.186;24.340;2023-04-15T05:52:54;98763.97;;;12.01;72.34
27729;BME280;15126;42.186;24.340;2023-04-15T05:55:21;98773.97;;;12.33;72.70
27729;BME280;15126;42.186;24.340;2023-04-15T05:57:48;98777.47;;;12.68;72.26
27729;BME280;15126;42.186;24.340;2023-04-15T06:00:15;98769.63;;;12.84;68.00
27729;BME280;15126;42.186;24.340;2023-04-15T06:02:43;98764.56;;;13.01;69.45
27729;BME280;15126;42.186;24.340;2023-04-15T06:05:11;98773.22;;;13.25;72.49
27729;BME280;15126;42.186;24.340;2023-04-15T06:07:38;98767.34;;;13.41;70.11
27729;BME280;15126;42.186;24.340;2023-04-15T06:10:06;98776.28;;;13.57;68.24
27729;BME280;15126;42.186;24.340;2023-04-15T06:12:33;98774.28;;;13.76;67.92
27729;BME280;15126;42.186;24.340;2023-04-15T06:15:00;98782.56;;;13.89;67.98
27729;BME280;15126;42.186;24.340;2023-04-15T06:17:31;98785.19;;;14.01;69.40
27729;BME280;15126;42.186;24.340;2023-04-15T06:19:59;98792.53;;;14.26;69.17
27729;BME280;15126;42.186;24.340;2023-04-15T06:22:25;98785.53;;;14.40;67.06
27729;BME280;15126;42.186;24.340;2023-04-15T06:24:53;98789.72;;;14.53;68.30
27729;BME280;15126;42.186;24.340;2023-04-15T06:27:20;98785.34;;;14.61;68.99
27729;BME280;15126;42.186;24.340;2023-04-15T06:29:47;98782.69;;;14.58;68.39
27729;BME280;15126;42.186;24.340;2023-04-15T06:32:14;98781.69;;;14.79;68.05
27729;BME280;15126;42.186;24.340;2023-04-15T06:34:40;98785.50;;;15.09;68.54
27729;BME280;15126;42.186;24.340;2023-04-15T06:37:08;98787.94;;;14.74;68.41
27729;BME280;15126;42.186;24.340;2023-04-15T06:39:40;98791.03;;;14.85;70.13
27729;BME280;15126;42.186;24.340;2023-04-15T06:42:07;98795.47;;;15.10;67.93
27729;BME280;15126;42.186;24.340;2023-04-15T06:44:34;98784.38;;;15.15;66.61
27729;BME280;15126;42.186;24.340;2023-04-15T06:47:01;98793.25;;;15.23;69.49
27729;BME280;15126;42.186;24.340;2023-04-15T06:49:28;98789.13;;;15.33;70.61
27729;BME280;15126;42.186;24.340;2023-04-15T06:51:55;98785.03;;;15.43;68.24
27729;BME280;15126;42.186;24.340;2023-04-15T06:54:23;98785.44;;;15.60;69.20
27729;BME280;15126;42.186;24.340;2023-04-15T06:56:50;98795.91;;;15.83;70.21
27729;BME280;15126;42.186;24.340;2023-04-15T06:59:17;98798.28;;;15.99;69.17
27729;BME280;15126;42.186;24.340;2023-04-15T07:01:44;98798.38;;;16.28;68.22
27729;BME280;15126;42.186;24.340;2023-04-15T07:04:11;98805.34;;;16.56;69.65
27729;BME280;15126;42.186;24.340;2023-04-15T07:06:38;98812.34;;;16.76;66.88
27729;BME280;15126;42.186;24.340;2023-04-15T07:09:06;98806.44;;;16.74;67.78
27729;BME280;15126;42.186;24.340;2023-04-15T07:11:34;98802.16;;;16.78;68.48
27729;BME280;15126;42.186;24.340;2023-04-15T07:14:01;98805.25;;;16.80;69.13
27729;BME280;15126;42.186;24.340;2023-04-15T07:16:29;98797.69;;;16.86;69.53
27729;BME280;15126;42.186;24.340;2023-04-15T07:18:56;98798.84;;;16.80;70.16
27729;BME280;15126;42.186;24.340;2023-04-15T07:21:23;98801.34;;;17.07;71.70
27729;BME280;15126;42.186;24.340;2023-04-15T07:23:52;98805.81;;;17.28;67.23
27729;BME280;15126;42.186;24.340;2023-04-15T07:26:18;98804.66;;;17.20;68.38
27729;BME280;15126;42.186;24.340;2023-04-15T07:28:47;98811.22;;;17.32;69.84
27729;BME280;15126;42.186;24.340;2023-04-15T07:31:13;98807.41;;;17.49;69.88
27729;BME280;15126;42.186;24.340;2023-04-15T07:33:40;98794.56;;;17.48;69.29
27729;BME280;15126;42.186;24.340;2023-04-15T07:36:07;98793.75;;;17.77;67.42
27729;BME280;15126;42.186;24.340;2023-04-15T07:38:34;98792.22;;;17.96;67.66
27729;BME280;15126;42.186;24.340;2023-04-15T07:41:04;98793.94;;;18.14;68.01
27729;BME280;15126;42.186;24.340;2023-04-15T07:43:31;98790.53;;;18.30;64.73
27729;BME280;15126;42.186;24.340;2023-04-15T07:45:59;98789.41;;;18.42;66.15
27729;BME280;15126;42.186;24.340;2023-04-15T07:48:26;98790.53;;;18.30;67.08
27729;BME280;15126;42.186;24.340;2023-04-15T07:50:52;98791.25;;;18.25;67.92
27729;BME280;15126;42.186;24.340;2023-04-15T07:53:19;98799.47;;;18.23;65.50
27729;BME280;15126;42.186;24.340;2023-04-15T07:55:46;98802.69;;;18.16;66.49
27729;BME280;15126;42.186;24.340;2023-04-15T07:58:13;98801.00;;;18.24;67.02
27729;BME280;15126;42.186;24.340;2023-04-15T08:00:40;98800.25;;;18.23;67.44
27729;BME280;15126;42.186;24.340;2023-04-15T08:03:08;98806.09;;;18.20;68.24
27729;BME280;15126;42.186;24.340;2023-04-15T08:05:34;98796.91;;;18.25;68.54
27729;BME280;15126;42.186;24.340;2023-04-15T08:08:04;98779.97;;;18.25;67.16
27729;BME280;15126;42.186;24.340;2023-04-15T08:10:31;98804.06;;;18.46;65.71
27729;BME280;15126;42.186;24.340;2023-04-15T08:12:58;98808.56;;;18.53;63.45
27729;BME280;15126;42.186;24.340;2023-04-15T08:15:25;98799.22;;;18.67;68.80
27729;BME280;15126;42.186;24.340;2023-04-15T08:17:52;98805.25;;;18.80;67.10
27729;BME280;15126;42.186;24.340;2023-04-15T08:20:20;98800.47;;;18.91;66.32
27729;BME280;15126;42.186;24.340;2023-04-15T08:22:47;98799.84;;;19.08;65.59
27729;BME280;15126;42.186;24.340;2023-04-15T08:25:16;98801.78;;;19.27;63.76
27729;BME280;15126;42.186;24.340;2023-04-15T08:27:44;98791.91;;;19.43;64.23
27729;BME280;15126;42.186;24.340;2023-04-15T08:30:11;98783.47;;;19.48;63.71
27729;BME280;15126;42.186;24.340;2023-04-15T08:32:38;98787.66;;;19.58;62.07
27729;BME280;15126;42.186;24.340;2023-04-15T08:35:05;98779.72;;;19.68;65.63
27729;BME280;15126;42.186;24.340;2023-04-15T08:37:34;98783.16;;;19.83;61.63
27729;BME280;15126;42.186;24.340;2023-04-15T08:40:00;98751.19;;;19.72;61.70
27729;BME280;15126;42.186;24.340;2023-04-15T08:42:31;98764.66;;;19.88;59.29
27729;BME280;15126;42.186;24.340;2023-04-15T08:45:03;98770.59;;;19.95;61.20
27729;BME280;15126;42.186;24.340;2023-04-15T08:47:32;98764.97;;;20.01;62.10
27729;BME280;15126;42.186;24.340;2023-04-15T08:50:01;98768.34;;;20.05;59.83
27729;BME280;15126;42.186;24.340;2023-04-15T08:52:29;98772.16;;;19.96;58.48
27729;BME280;15126;42.186;24.340;2023-04-15T08:54:59;98777.34;;;20.09;63.36
27729;BME280;15126;42.186;24.340;2023-04-15T08:57:30;98782.56;;;20.22;58.16
27729;BME280;15126;42.186;24.340;2023-04-15T08:59:57;98780.06;;;20.35;58.08
27729;BME280;15126;42.186;24.340;2023-04-15T09:02:25;98778.16;;;20.15;59.53
27729;BME280;15126;42.186;24.340;2023-04-15T09:04:52;98774.19;;;19.90;57.92
27729;BME280;15126;42.186;24.340;2023-04-15T09:07:19;98789.63;;;19.89;58.19
27729;BME280;15126;42.186;24.340;2023-04-15T09:09:47;98772.91;;;19.91;60.96
27729;BME280;15126;42.186;24.340;2023-04-15T09:12:15;98777.16;;;20.24;58.80
27729;BME280;15126;42.186;24.340;2023-04-15T09:14:44;98774.91;;;20.39;58.02
27729;BME280;15126;42.186;24.340;2023-04-15T09:17:11;98771.06;;;20.53;58.64
27729;BME280;15126;42.186;24.340;2023-04-15T09:19:38;98761.03;;;20.63;55.68
27729;BME280;15126;42.186;24.340;2023-04-15T09:22:05;98762.09;;;20.71;52.84
27729;BME280;15126;42.186;24.340;2023-04-15T09:24:36;98767.25;;;20.78;55.22
27729;BME280;15126;42.186;24.340;2023-04-15T09:27:04;98759.50;;;20.62;52.97
27729;BME280;15126;42.186;24.340;2023-04-15T09:29:33;98758.94;;;20.47;54.13
27729;BME280;15126;42.186;24.340;2023-04-15T09:32:10;98766.47;;;20.66;55.14
27729;BME280;15126;42.186;24.340;2023-04-15T09:34:37;98755.94;;;20.78;53.05
27729;BME280;15126;42.186;24.340;2023-04-15T09:37:04;98757.19;;;20.60;52.94
27729;BME280;15126;42.186;24.340;2023-04-15T09:39:46;98755.91;;;20.67;51.31
27729;BME280;15126;42.186;24.340;2023-04-15T09:42:14;98745.59;;;20.75;53.59
27729;BME280;15126;42.186;24.340;2023-04-15T09:44:43;98743.03;;;20.94;51.86
27729;BME280;15126;42.186;24.340;2023-04-15T09:47:26;98740.75;;;21.09;46.26
27729;BME280;15126;42.186;24.340;2023-04-15T09:49:54;98732.50;;;21.11;46.80
27729;BME280;15126;42.186;24.340;2023-04-15T09:52:22;98731.72;;;21.27;49.13
27729;BME280;15126;42.186;24.340;2023-04-15T09:54:52;98722.41;;;21.38;48.19
27729;BME280;15126;42.186;24.340;2023-04-15T09:57:18;98723.19;;;21.38;44.22
27729;BME280;15126;42.186;24.340;2023-04-15T09:59:48;98728.34;;;21.28;45.30
27729;BME280;15126;42.186;24.340;2023-04-15T10:02:15;98726.06;;;21.10;45.03
27729;BME280;15126;42.186;24.340;2023-04-15T10:04:44;98719.34;;;21.24;46.46
27729;BME280;15126;42.186;24.340;2023-04-15T10:07:14;98728.88;;;21.32;40.15
27729;BME280;15126;42.186;24.340;2023-04-15T10:09:43;98728.06;;;21.43;41.74
27729;BME280;15126;42.186;24.340;2023-04-15T10:12:11;98717.75;;;21.34;43.49
27729;BME280;15126;42.186;24.340;2023-04-15T10:14:39;98722.66;;;21.28;44.34
27729;BME280;15126;42.186;24.340;2023-04-15T10:17:10;98716.50;;;21.30;44.68
27729;BME280;15126;42.186;24.340;2023-04-15T10:19:37;98724.25;;;21.18;44.71
27729;BME280;15126;42.186;24.340;2023-04-15T10:22:05;98721.41;;;21.07;44.68
27729;BME280;15126;42.186;24.340;2023-04-15T10:24:32;98713.13;;;21.20;43.47
27729;BME280;15126;42.186;24.340;2023-04-15T10:26:59;98705.63;;;21.40;44.13
27729;BME280;15126;42.186;24.340;2023-04-15T10:29:26;98698.06;;;21.70;42.00
27729;BME280;15126;42.186;24.340;2023-04-15T10:31:53;98688.19;;;21.93;43.53
27729;BME280;15126;42.186;24.340;2023-04-15T10:34:23;98693.78;;;22.04;43.74
27729;BME280;15126;42.186;24.340;2023-04-15T10:36:50;98686.78;;;22.11;41.72
27729;BME280;15126;42.186;24.340;2023-04-15T10:39:42;98690.84;;;22.21;41.24
27729;BME280;15126;42.186;24.340;2023-04-15T10:42:11;98690.66;;;22.13;41.13
27729;BME280;15126;42.186;24.340;2023-04-15T10:44:38;98681.88;;;22.11;41.20
27729;BME280;15126;42.186;24.340;2023-04-15T10:47:11;98675.44;;;22.11;40.70
27729;BME280;15126;42.186;24.340;2023-04-15T10:49:46;98687.28;;;22.20;42.13
27729;BME280;15126;42.186;24.340;2023-04-15T10:52:15;98670.53;;;22.11;42.22
27729;BME280;15126;42.186;24.340;2023-04-15T10:54:43;98686.59;;;22.03;43.18
27729;BME280;15126;42.186;24.340;2023-04-15T10:57:15;98678.16;;;21.86;42.21
27729;BME280;15126;42.186;24.340;2023-04-15T11:00:15;98680.97;;;21.81;43.60
27729;BME280;15126;42.186;24.340;2023-04-15T11:02:44;98666.13;;;21.53;44.92
27729;BME280;15126;42.186;24.340;2023-04-15T11:05:14;98681.03;;;21.70;44.12
27729;BME280;15126;42.186;24.340;2023-04-15T11:07:52;98670.19;;;21.74;44.46
27729;BME280;15126;42.186;24.340;2023-04-15T11:10:49;98677.16;;;21.67;42.68
27729;BME280;15126;42.186;24.340;2023-04-15T11:13:23;98648.09;;;21.45;43.49
27729;BME280;15126;42.186;24.340;2023-04-15T11:15:55;98673.03;;;21.68;43.14
27729;BME280;15126;42.186;24.340;2023-04-15T11:18:24;98668.63;;;21.73;44.86
27729;BME280;15126;42.186;24.340;2023-04-15T11:20:55;98671.72;;;21.69;42.57
27729;BME280;15126;42.186;24.340;2023-04-15T11:23:27;98677.22;;;21.51;43.95
27729;BME280;15126;42.186;24.340;2023-04-15T11:25:55;98667.97;;;21.39;43.33
27729;BME280;15126;42.186;24.340;2023-04-15T11:28:24;98667.94;;;21.50;41.83
27729;BME280;15126;42.186;24.340;2023-04-15T11:30:52;98648.59;;;21.49;42.59
27729;BME280;15126;42.186;24.340;2023-04-15T11:33:20;98665.88;;;21.45;45.12
27729;BME280;15126;42.186;24.340;2023-04-15T11:35:47;98653.31;;;21.29;44.42
27729;BME280;15126;42.186;24.340;2023-04-15T11:38:15;98651.47;;;21.43;44.49
27729;BME280;15126;42.186;24.340;2023-04-15T11:40:42;98649.94;;;21.31;44.74
27729;BME280;15126;42.186;24.340;2023-04-15T11:43:10;98638.00;;;21.55;45.32
27729;BME280;15126;42.186;24.340;2023-04-15T11:45:49;98635.84;;;21.72;45.14
27729;BME280;15126;42.186;24.340;2023-04-15T11:48:16;98637.63;;;21.75;44.09
27729;BME280;15126;42.186;24.340;2023-04-15T11:50:44;98644.59;;;21.79;44.62
27729;BME280;15126;42.186;24.340;2023-04-15T11:53:12;98632.75;;;21.70;41.99
27729;BME280;15126;42.186;24.340;2023-04-15T11:55:45;98644.66;;;21.68;44.24
27729;BME280;15126;42.186;24.340;2023-04-15T11:58:13;98644.09;;;21.75;41.88
27729;BME280;15126;42.186;24.340;2023-04-15T12:00:45;98634.34;;;21.65;41.94
27729;BME280;15126;42.186;24.340;2023-04-15T12:03:15;98631.28;;;21.58;42.34
27729;BME280;15126;42.186;24.340;2023-04-15T12:06:13;98626.28;;;21.75;40.52
27729;BME280;15126;42.186;24.340;2023-04-15T12:08:55;98595.44;;;21.55;39.92
27729;BME280;15126;42.186;24.340;2023-04-15T12:11:30;98621.38;;;21.75;41.48
27729;BME280;15126;42.186;24.340;2023-04-15T12:13:58;98619.59;;;21.72;42.46
27729;BME280;15126;42.186;24.340;2023-04-15T12:16:27;98625.00;;;21.76;40.76
27729;BME280;15126;42.186;24.340;2023-04-15T12:18:56;98593.69;;;21.41;40.57
27729;BME280;15126;42.186;24.340;2023-04-15T12:21:25;98615.03;;;21.53;40.68
27729;BME280;15126;42.186;24.340;2023-04-15T12:23:55;98614.50;;;21.60;39.38
27729;BME280;15126;42.186;24.340;2023-04-15T12:26:26;98625.38;;;21.50;39.23
27729;BME280;15126;42.186;24.340;2023-04-15T12:28:55;98621.28;;;21.46;39.43
27729;BME280;15126;42.186;24.340;2023-04-15T12:31:22;98622.31;;;21.43;39.89
27729;BME280;15126;42.186;24.340;2023-04-15T12:33:49;98626.16;;;21.45;39.02
27729;BME280;15126;42.186;24.340;2023-04-15T12:36:16;98630.03;;;21.48;40.44
27729;BME280;15126;42.186;24.340;2023-04-15T12:38:42;98624.13;;;21.40;40.66
27729;BME280;15126;42.186;24.340;2023-04-15T12:41:09;98626.69;;;21.49;39.89
27729;BME280;15126;42.186;24.340;2023-04-15T12:43:36;98635.66;;;21.59;39.74
27729;BME280;15126;42.186;24.340;2023-04-15T12:46:04;98628.19;;;21.56;39.86
27729;BME280;15126;42.186;24.340;2023-04-15T12:48:32;98632.75;;;21.75;38.05
27729;BME280;15126;42.186;24.340;2023-04-15T12:50:59;98627.53;;;21.85;38.55
27729;BME280;15126;42.186;24.340;2023-04-15T12:53:26;98615.91;;;21.83;38.85
27729;BME280;15126;42.186;24.340;2023-04-15T12:55:53;98622.13;;;21.87;38.73
27729;BME280;15126;42.186;24.340;2023-04-15T12:58:20;98622.59;;;21.97;38.90